createdAt,value
2022-11-16T00:02:59.923Z,85.40
2022-11-16T00:08:03.408Z,81.40
2022-11-16T00:13:06.849Z,81.50
2022-11-16T00:18:10.362Z,77.50
2022-11-16T00:23:13.794Z,79.70
2022-11-16T00:28:17.216Z,78.30
2022-11-16T00:33:20.704Z,81.60
2022-11-16T00:38:24.226Z,83.70
2022-11-16T00:43:27.766Z,81.90
2022-11-16T00:48:31.555Z,75.50
2022-11-16T00:53:35.416Z,83.70
2022-11-16T00:58:39.066Z,76.00
2022-11-16T01:03:42.557Z,80.40
2022-11-16T01:08:45.981Z,80.30
2022-11-16T01:13:49.549Z,78.70
2022-11-16T01:18:52.972Z,78.80
2022-11-16T01:23:57.139Z,83.30
2022-11-16T01:29:00.611Z,80.70
2022-11-16T01:34:04.033Z,84.60
2022-11-16T01:39:07.459Z,83.60
2022-11-16T01:44:10.868Z,78.50
2022-11-16T01:49:14.303Z,83.00
2022-11-16T01:54:17.749Z,81.50
2022-11-16T01:59:21.260Z,77.90
2022-11-16T02:04:24.771Z,78.70
2022-11-16T02:09:46.188Z,79.50
2022-11-16T02:14:49.678Z,78.60
2022-11-16T02:19:53.085Z,80.00
2022-11-16T02:24:56.518Z,80.30
2022-11-16T02:30:00.001Z,81.30
2022-11-16T02:35:03.421Z,77.90
2022-11-16T02:40:07.920Z,82.90
2022-11-16T02:45:11.325Z,77.40
2022-11-16T02:50:14.717Z,79.40
2022-11-16T02:55:18.125Z,79.50
2022-11-16T03:00:21.537Z,79.70
2022-11-16T03:05:32.186Z,86.20
2022-11-16T03:10:53.301Z,80.90
2022-11-16T03:15:56.817Z,74.50
2022-11-16T03:21:00.240Z,78.00
2022-11-16T03:26:03.665Z,80.50
2022-11-16T03:31:07.073Z,74.50
2022-11-16T03:36:10.472Z,78.20
2022-11-16T03:41:13.873Z,79.20
2022-11-16T03:46:17.274Z,79.90
2022-11-16T03:51:20.665Z,77.40
2022-11-16T03:56:24.157Z,77.70
2022-11-16T04:01:27.646Z,76.60
2022-11-16T04:06:48.951Z,77.40
2022-11-16T04:12:10.504Z,79.00
2022-11-16T04:17:31.632Z,80.50
2022-11-16T04:22:54.013Z,76.70
2022-11-16T04:28:16.596Z,77.00
2022-11-16T04:33:38.209Z,79.30
2022-11-16T04:38:41.633Z,80.70
2022-11-16T04:43:45.045Z,76.30
2022-11-16T04:48:48.459Z,78.10
2022-11-16T04:53:51.885Z,77.00
2022-11-16T04:58:55.317Z,77.10
2022-11-16T05:03:58.733Z,76.90
2022-11-16T05:09:02.249Z,71.10
2022-11-16T05:14:06.329Z,74.40
2022-11-16T05:19:27.436Z,73.80
2022-11-16T05:24:36.988Z,70.30
2022-11-16T05:29:40.414Z,72.20
2022-11-16T05:34:43.832Z,77.80
2022-11-16T05:39:47.230Z,71.30
2022-11-16T05:44:50.655Z,68.50
2022-11-16T05:49:54.081Z,75.80
2022-11-16T05:54:57.466Z,71.10
2022-11-16T06:00:01.041Z,73.60
2022-11-16T06:05:04.469Z,69.80
2022-11-16T06:10:07.889Z,70.10
2022-11-16T06:15:11.298Z,81.60
2022-11-16T06:20:14.721Z,75.10
2022-11-16T06:25:18.157Z,75.40
2022-11-16T06:30:21.618Z,74.20
2022-11-16T06:35:25.028Z,67.40
2022-11-16T06:40:28.455Z,73.80
2022-11-16T06:45:31.863Z,73.30
2022-11-16T06:50:37.293Z,68.50
2022-11-16T06:55:40.702Z,69.30
2022-11-16T07:00:44.185Z,69.40
2022-11-16T07:05:47.660Z,74.80
2022-11-16T07:10:51.051Z,73.50
2022-11-16T07:15:54.509Z,76.00
2022-11-16T07:20:58.930Z,74.80
2022-11-16T07:26:02.358Z,73.30
2022-11-16T07:31:05.784Z,78.90
2022-11-16T07:36:09.169Z,77.00
2022-11-16T07:41:13.683Z,77.30
2022-11-16T07:46:45.193Z,78.10
2022-11-16T07:51:40.544Z,84.70
2022-11-16T07:56:43.953Z,76.30
2022-11-16T08:01:47.467Z,77.50
2022-11-16T08:06:53.132Z,79.50
2022-11-16T08:11:56.730Z,75.30
2022-11-16T08:17:00.153Z,79.40
2022-11-16T08:22:03.641Z,71.30
2022-11-16T08:27:07.108Z,68.20
2022-11-16T08:32:10.522Z,79.80
2022-11-16T08:37:14.009Z,71.80
2022-11-16T08:42:17.491Z,78.70
2022-11-16T08:47:20.953Z,76.60
2022-11-16T08:52:24.371Z,73.90
2022-11-16T08:57:27.829Z,74.90
2022-11-16T09:02:31.818Z,75.70
2022-11-16T09:07:35.350Z,71.90
2022-11-16T09:12:39.001Z,79.60
2022-11-16T09:17:42.400Z,77.30
2022-11-16T09:22:45.840Z,81.20
2022-11-16T09:27:49.260Z,78.20
2022-11-16T09:32:52.746Z,81.10
2022-11-16T09:37:56.269Z,84.10
2022-11-16T09:42:59.785Z,83.80
2022-11-16T09:48:03.286Z,83.70
2022-11-16T09:53:06.815Z,87.80
2022-11-16T09:58:10.250Z,85.30
2022-11-16T10:03:14.010Z,87.60
2022-11-16T10:08:17.488Z,95.00
2022-11-16T10:13:22.101Z,95.60
2022-11-16T10:18:25.776Z,103.50
2022-11-16T10:23:29.181Z,100.70
2022-11-16T10:28:32.776Z,102.90
2022-11-16T10:33:37.125Z,107.60
2022-11-16T10:38:41.006Z,107.00
2022-11-16T10:43:44.409Z,108.00
2022-11-16T10:48:47.815Z,96.60
2022-11-16T10:53:53.112Z,98.60
2022-11-16T10:58:56.559Z,99.00
2022-11-16T11:04:01.250Z,101.70
2022-11-16T11:09:04.671Z,108.10
2022-11-16T11:14:08.073Z,103.80
2022-11-16T11:19:11.586Z,101.60
2022-11-16T11:24:42.827Z,98.90
2022-11-16T11:29:38.840Z,98.90
2022-11-16T11:34:42.806Z,91.50
2022-11-16T11:39:46.276Z,86.30
2022-11-16T11:44:51.940Z,62.70
2022-11-16T11:49:55.430Z,44.90
2022-11-16T11:54:58.882Z,44.40
2022-11-16T12:00:02.316Z,53.00
2022-11-16T12:05:05.907Z,51.30
2022-11-16T12:10:09.365Z,44.30
2022-11-16T12:15:12.795Z,41.00
2022-11-16T12:20:16.301Z,37.40
2022-11-16T12:25:19.713Z,35.70
2022-11-16T12:30:23.136Z,33.20
2022-11-16T12:35:26.635Z,30.40
2022-11-16T12:40:30.042Z,29.10
2022-11-16T12:45:33.462Z,24.60
2022-11-16T12:50:36.868Z,26.70
2022-11-16T12:55:40.388Z,27.40
2022-11-16T13:00:44.759Z,24.10
2022-11-16T13:05:48.211Z,22.80
2022-11-16T13:10:51.764Z,23.40
2022-11-16T13:15:55.203Z,21.20
2022-11-16T13:20:58.626Z,22.60
2022-11-16T13:26:02.088Z,22.20
2022-11-16T13:31:05.590Z,38.10
2022-11-16T13:36:09.051Z,49.10
2022-11-16T13:41:12.515Z,66.40
2022-11-16T13:46:54.843Z,67.30
2022-11-16T13:51:51.754Z,57.70
2022-11-16T13:56:55.167Z,61.10
2022-11-16T14:01:58.764Z,59.00
2022-11-16T14:07:02.299Z,50.90
2022-11-16T14:12:05.792Z,57.90
2022-11-16T14:17:09.612Z,63.40
2022-11-16T14:22:13.098Z,71.60
2022-11-16T14:27:17.025Z,68.80
2022-11-16T14:32:20.454Z,65.20
2022-11-16T14:37:24.489Z,55.40
2022-11-16T14:47:46.535Z,40.50
2022-11-16T14:52:49.986Z,28.40
2022-11-16T14:57:53.389Z,32.20
2022-11-16T15:03:02.346Z,34.40
2022-11-16T15:08:06.338Z,29.00
2022-11-16T15:13:09.735Z,27.70
2022-11-16T15:18:13.153Z,24.60
2022-11-16T15:23:16.557Z,21.40
2022-11-16T15:28:19.986Z,25.00
2022-11-16T15:33:23.389Z,24.90
2022-11-16T15:38:26.788Z,25.40
2022-11-16T15:43:30.244Z,22.10
2022-11-16T15:48:34.006Z,21.50
2022-11-16T15:58:41.348Z,17.30
2022-11-16T16:03:44.773Z,18.10
2022-11-16T16:08:48.187Z,16.80
2022-11-16T16:13:51.616Z,17.00
2022-11-16T16:18:55.054Z,17.10
2022-11-16T16:23:58.488Z,14.80
2022-11-16T16:29:01.882Z,16.40
2022-11-16T16:34:05.284Z,13.40
2022-11-16T16:39:08.718Z,13.30
2022-11-16T16:44:12.118Z,13.70
2022-11-16T16:49:15.520Z,11.10
2022-11-16T16:54:20.012Z,12.30
2022-11-16T16:59:23.421Z,13.80
2022-11-16T17:04:26.861Z,11.00
2022-11-16T17:09:30.470Z,13.20
2022-11-16T17:14:33.892Z,12.20
2022-11-16T17:19:37.381Z,10.70
2022-11-16T17:24:40.797Z,10.50
2022-11-16T17:29:44.196Z,12.50
2022-11-16T17:34:47.590Z,10.90
2022-11-16T17:39:50.983Z,10.30
2022-11-16T17:44:55.180Z,13.00
2022-11-16T17:50:01.853Z,12.10
2022-11-16T18:01:12.240Z,11.80
2022-11-16T18:06:15.750Z,10.60
2022-11-16T18:11:19.204Z,9.80
2022-11-16T18:16:22.616Z,8.80
2022-11-16T18:21:25.999Z,8.90
2022-11-16T18:26:29.455Z,10.30
2022-11-16T18:31:34.009Z,8.00
2022-11-16T18:36:37.441Z,8.80
2022-11-16T18:41:40.845Z,8.10
2022-11-16T18:46:44.265Z,8.90
2022-11-16T18:51:47.685Z,7.90
2022-11-16T18:56:51.089Z,6.90
2022-11-16T19:01:54.493Z,7.50
2022-11-16T19:06:58.027Z,5.20
2022-11-16T19:12:01.568Z,5.70
2022-11-16T19:17:05.296Z,7.60
2022-11-16T19:22:08.812Z,5.40
2022-11-16T19:27:13.213Z,6.30
2022-11-16T19:32:16.698Z,6.10
2022-11-16T19:37:20.100Z,4.90
2022-11-16T19:42:23.521Z,5.20
2022-11-16T19:47:26.985Z,5.30
2022-11-16T19:52:32.440Z,5.80
2022-11-16T19:57:35.840Z,10.30
2022-11-16T20:02:39.245Z,4.40
2022-11-16T20:07:44.632Z,5.40
2022-11-16T20:12:49.708Z,12.60
2022-11-16T20:17:56.282Z,5.40
2022-11-16T20:22:59.668Z,9.80
2022-11-16T20:28:03.112Z,8.20
2022-11-16T20:33:06.521Z,5.50
2022-11-16T20:38:09.917Z,5.00
2022-11-16T20:43:14.466Z,5.00
2022-11-16T20:48:17.866Z,6.00
2022-11-16T20:53:22.350Z,7.00
2022-11-16T20:58:25.778Z,5.70
2022-11-16T21:03:29.193Z,6.80
2022-11-16T21:08:32.627Z,4.80
2022-11-16T21:13:53.921Z,4.00
2022-11-16T21:18:57.354Z,5.00
2022-11-16T21:24:00.760Z,5.50
2022-11-16T21:29:04.275Z,5.90
2022-11-16T21:34:07.792Z,5.10
2022-11-16T21:39:11.204Z,5.70
2022-11-16T21:44:14.596Z,5.60
2022-11-16T21:49:18.206Z,4.00
2022-11-16T21:54:41.586Z,4.40
2022-11-16T21:59:45.130Z,3.80
2022-11-16T22:05:06.124Z,4.60
2022-11-16T22:10:09.526Z,4.90
2022-11-16T22:15:13.102Z,4.40
2022-11-16T22:20:16.545Z,5.30
2022-11-16T22:25:20.039Z,3.50
2022-11-16T22:30:23.527Z,4.20
2022-11-16T22:35:27.061Z,5.40
2022-11-16T22:40:30.493Z,4.60
2022-11-16T22:45:33.989Z,4.40
2022-11-16T22:50:37.464Z,4.00
2022-11-16T22:55:40.949Z,3.70
2022-11-16T23:00:44.545Z,4.20
2022-11-16T23:05:47.980Z,6.00
2022-11-16T23:11:05.302Z,3.00
2022-11-16T23:16:08.813Z,5.10
2022-11-16T23:21:30.284Z,3.60
2022-11-16T23:26:51.690Z,4.00
2022-11-16T23:31:55.214Z,4.70
2022-11-16T23:36:58.816Z,4.70
2022-11-16T23:42:21.362Z,3.90
2022-11-16T23:47:24.845Z,4.10
2022-11-16T23:52:28.428Z,4.00
2022-11-16T23:57:31.872Z,4.30
